sensor_id;sensor_type;location;lat;lon;timestamp;pressure;altitude;pressure_sealevel;temperature;humidity
6034;BME280;3045;43.226;27.858;2022-12-29T00:00:00;146568.28;;;2.02;100.00
6034;BME280;3045;43.226;27.858;2022-12-29T00:02:28;146593.38;;;2.12;100.00
6034;BME280;3045;43.226;27.858;2022-12-29T00:04:55;146623.53;;;2.24;100.00
6034;BME280;3045;43.226;27.858;2022-12-29T00:07:21;146256.66;;;2.33;100.00
6034;BME280;3045;43.226;27.858;2022-12-29T00:09:48;133844.72;;;2.48;100.00
6034;BME280;3045;43.226;27.858;2022-12-29T00:12:15;135153.59;;;2.51;100.00
6034;BME280;3045;43.226;27.858;2022-12-29T00:14:43;126162.84;;;2.62;100.00
6034;BME280;3045;43.226;27.858;2022-12-29T00:17:42;141846.03;;;2.47;100.00
6034;BME280;3045;43.226;27.858;2022-12-29T00:20:09;145276.72;;;2.56;100.00
6034;BME280;3045;43.226;27.858;2022-12-29T00:22:53;146683.78;;;2.49;100.00
6034;BME280;3045;43.226;27.858;2022-12-29T00:25:38;146671.22;;;2.44;100.00
6034;BME280;3045;43.226;27.858;2022-12-29T00:28:22;146664.94;;;2.41;100.00
6034;BME280;3045;43.226;27.858;2022-12-29T00:31:11;146587.13;;;2.10;100.00
6034;BME280;3045;43.226;27.858;2022-12-29T00:33:56;146628.53;;;2.26;100.00
6034;BME280;3045;43.226;27.858;2022-12-29T00:36:45;141203.00;;;2.28;100.00
6034;BME280;3045;43.226;27.858;2022-12-29T00:39:14;135626.78;;;2.45;100.00
6034;BME280;3045;43.226;27.858;2022-12-29T00:42:03;143553.16;;;2.46;100.00
6034;BME280;3045;43.226;27.858;2022-12-29T00:44:47;146682.50;;;2.48;100.00
6034;BME280;3045;43.226;27.858;2022-12-29T00:47:16;146688.75;;;2.51;100.00
6034;BME280;3045;43.226;27.858;2022-12-29T00:49:42;146658.66;;;2.39;100.00
6034;BME280;3045;43.226;27.858;2022-12-29T00:52:10;146656.16;;;2.38;100.00
6034;BME280;3045;43.226;27.858;2022-12-29T00:54:39;146637.31;;;2.30;100.00
6034;BME280;3045;43.226;27.858;2022-12-29T00:57:08;146656.16;;;2.38;100.00
6034;BME280;3045;43.226;27.858;2022-12-29T00:59:36;146656.16;;;2.38;100.00
6034;BME280;3045;43.226;27.858;2022-12-29T01:02:03;146658.66;;;2.39;100.00
6034;BME280;3045;43.226;27.858;2022-12-29T01:04:31;146642.34;;;2.32;100.00
6034;BME280;3045;43.226;27.858;2022-12-29T01:06:59;144535.72;;;2.36;100.00
6034;BME280;3045;43.226;27.858;2022-12-29T01:09:26;140614.25;;;2.35;100.00
6034;BME280;3045;43.226;27.858;2022-12-29T01:12:11;145634.28;;;2.37;100.00
6034;BME280;3045;43.226;27.858;2022-12-29T01:14:38;146624.75;;;2.25;100.00
6034;BME280;3045;43.226;27.858;2022-12-29T01:17:05;146582.13;;;2.08;100.00
6034;BME280;3045;43.226;27.858;2022-12-29T01:19:34;146519.31;;;1.82;100.00
6034;BME280;3045;43.226;27.858;2022-12-29T01:22:01;143372.25;;;2.09;100.00
6034;BME280;3045;43.226;27.858;2022-12-29T01:24:28;136551.69;;;1.67;100.00
6034;BME280;3045;43.226;27.858;2022-12-29T01:26:55;137000.03;;;2.03;100.00
6034;BME280;3045;43.226;27.858;2022-12-29T01:29:22;139340.81;;;2.02;100.00
6034;BME280;3045;43.226;27.858;2022-12-29T01:31:49;140351.75;;;2.07;100.00
6034;BME280;3045;43.226;27.858;2022-12-29T01:34:16;139502.91;;;1.91;100.00
6034;BME280;3045;43.226;27.858;2022-12-29T01:36:44;138781.84;;;2.08;100.00
6034;BME280;3045;43.226;27.858;2022-12-29T01:39:11;144085.09;;;1.94;100.00
6034;BME280;3045;43.226;27.858;2022-12-29T01:41:37;143357.84;;;2.00;100.00
6034;BME280;3045;43.226;27.858;2022-12-29T01:47:04;138048.59;;;1.95;100.00
6034;BME280;3045;43.226;27.858;2022-12-29T01:49:31;128054.66;;;1.91;100.00
6034;BME280;3045;43.226;27.858;2022-12-29T01:52:02;124268.09;;;1.99;100.00
6034;BME280;3045;43.226;27.858;2022-12-29T01:54:33;129518.91;;;1.97;100.00
6034;BME280;3045;43.226;27.858;2022-12-29T01:57:04;133187.69;;;1.88;100.00
6034;BME280;3045;43.226;27.858;2022-12-29T01:59:36;122943.06;;;1.91;100.00
6034;BME280;3045;43.226;27.858;2022-12-29T02:02:05;116428.63;;;1.97;100.00
6034;BME280;3045;43.226;27.858;2022-12-29T02:04:34;114157.41;;;2.03;100.00
6034;BME280;3045;43.226;27.858;2022-12-29T02:07:05;107662.56;;;2.12;100.00
6034;BME280;3045;43.226;27.858;2022-12-29T02:09:35;113192.38;;;2.09;100.00
6034;BME280;3045;43.226;27.858;2022-12-29T02:12:02;123620.81;;;2.02;100.00
6034;BME280;3045;43.226;27.858;2022-12-29T02:14:30;121630.34;;;1.88;100.00
6034;BME280;3045;43.226;27.858;2022-12-29T02:17:06;116736.72;;;1.88;100.00
6034;BME280;3045;43.226;27.858;2022-12-29T02:20:02;109877.72;;;1.78;100.00
6034;BME280;3045;43.226;27.858;2022-12-29T02:22:42;111813.41;;;1.69;100.00
6034;BME280;3045;43.226;27.858;2022-12-29T02:25:48;112783.34;;;1.66;100.00
6034;BME280;3045;43.226;27.858;2022-12-29T02:31:28;92930.91;;;1.36;100.00
6034;BME280;3045;43.226;27.858;2022-12-29T02:34:06;80993.38;;;1.47;100.00
6034;BME280;3045;43.226;27.858;2022-12-29T02:36:40;76164.06;;;1.51;100.00
6034;BME280;3045;43.226;27.858;2022-12-29T02:39:15;72308.56;;;1.57;100.00
6034;BME280;3045;43.226;27.858;2022-12-29T02:41:57;69736.56;;;1.58;100.00
6034;BME280;3045;43.226;27.858;2022-12-29T02:44:31;67497.09;;;1.67;100.00
6034;BME280;3045;43.226;27.858;2022-12-29T02:47:05;65251.09;;;1.69;100.00
6034;BME280;3045;43.226;27.858;2022-12-29T02:49:40;64303.91;;;1.84;100.00
6034;BME280;3045;43.226;27.858;2022-12-29T02:52:15;64464.41;;;1.70;100.00
6034;BME280;3045;43.226;27.858;2022-12-29T02:54:43;64101.00;;;1.46;100.00
6034;BME280;3045;43.226;27.858;2022-12-29T02:57:11;58850.47;;;2.01;100.00
6034;BME280;3045;43.226;27.858;2022-12-29T02:59:39;55933.22;;;2.14;100.00
6034;BME280;3045;43.226;27.858;2022-12-29T03:02:24;61396.13;;;1.76;100.00
6034;BME280;3045;43.226;27.858;2022-12-29T03:05:27;65165.75;;;2.05;100.00
6034;BME280;3045;43.226;27.858;2022-12-29T03:08:05;61103.91;;;2.10;100.00
6034;BME280;3045;43.226;27.858;2022-12-29T03:10:39;59261.88;;;2.16;100.00
6034;BME280;3045;43.226;27.858;2022-12-29T03:13:12;65237.75;;;2.07;100.00
6034;BME280;3045;43.226;27.858;2022-12-29T03:16:05;68149.00;;;2.05;100.00
6034;BME280;3045;43.226;27.858;2022-12-29T03:18:40;70773.78;;;2.09;100.00
6034;BME280;3045;43.226;27.858;2022-12-29T03:21:15;65574.00;;;1.98;100.00
6034;BME280;3045;43.226;27.858;2022-12-29T03:23:44;60468.13;;;2.23;100.00
6034;BME280;3045;43.226;27.858;2022-12-29T03:26:15;61688.03;;;2.29;100.00
6034;BME280;3045;43.226;27.858;2022-12-29T03:28:47;62186.16;;;2.40;100.00
6034;BME280;3045;43.226;27.858;2022-12-29T03:31:17;58729.19;;;2.52;100.00
6034;BME280;3045;43.226;27.858;2022-12-29T03:33:47;68423.72;;;2.38;100.00
6034;BME280;3045;43.226;27.858;2022-12-29T03:36:18;76635.22;;;2.40;100.00
6034;BME280;3045;43.226;27.858;2022-12-29T03:38:51;85824.38;;;2.22;100.00
6034;BME280;3045;43.226;27.858;2022-12-29T03:41:27;88061.50;;;2.24;100.00
6034;BME280;3045;43.226;27.858;2022-12-29T03:43:55;88071.09;;;2.27;100.00
6034;BME280;3045;43.226;27.858;2022-12-29T03:46:22;85160.41;;;2.24;100.00
6034;BME280;3045;43.226;27.858;2022-12-29T03:48:50;80793.06;;;2.34;100.00
6034;BME280;3045;43.226;27.858;2022-12-29T03:51:17;75098.28;;;2.44;100.00
6034;BME280;3045;43.226;27.858;2022-12-29T03:53:43;74561.16;;;2.47;100.00
6034;BME280;3045;43.226;27.858;2022-12-29T03:56:10;74833.38;;;2.51;100.00
6034;BME280;3045;43.226;27.858;2022-12-29T03:58:37;79773.38;;;2.46;100.00
6034;BME280;3045;43.226;27.858;2022-12-29T04:01:04;84423.72;;;2.36;100.00
6034;BME280;3045;43.226;27.858;2022-12-29T04:03:31;73230.00;;;2.42;100.00
6034;BME280;3045;43.226;27.858;2022-12-29T04:05:59;65396.75;;;2.37;100.00
6034;BME280;3045;43.226;27.858;2022-12-29T04:08:26;61288.97;;;2.26;100.00
6034;BME280;3045;43.226;27.858;2022-12-29T04:10:53;60553.94;;;2.24;100.00
6034;BME280;3045;43.226;27.858;2022-12-29T04:13:20;52090.03;;;2.32;100.00
6034;BME280;3045;43.226;27.858;2022-12-29T04:15:46;48743.75;;;2.20;100.00
6034;BME280;3045;43.226;27.858;2022-12-29T04:18:13;42426.56;;;2.33;100.00
6034;BME280;3045;43.226;27.858;2022-12-29T04:20:41;42956.16;;;2.23;100.00
6034;BME280;3045;43.226;27.858;2022-12-29T04:23:30;45699.78;;;2.30;100.00
6034;BME280;3045;43.226;27.858;2022-12-29T04:25:57;46983.56;;;2.37;100.00
6034;BME280;3045;43.226;27.858;2022-12-29T04:28:24;49784.06;;;2.23;100.00
6034;BME280;3045;43.226;27.858;2022-12-29T04:30:51;53401.38;;;2.24;100.00
6034;BME280;3045;43.226;27.858;2022-12-29T04:33:18;55700.31;;;2.33;100.00
6034;BME280;3045;43.226;27.858;2022-12-29T04:35:45;59778.13;;;2.25;100.00
6034;BME280;3045;43.226;27.858;2022-12-29T04:38:13;61293.63;;;2.28;100.00
6034;BME280;3045;43.226;27.858;2022-12-29T04:40:42;62612.25;;;2.20;100.00
6034;BME280;3045;43.226;27.858;2022-12-29T04:43:09;64565.00;;;2.11;100.00
6034;BME280;3045;43.226;27.858;2022-12-29T04:45:36;65169.16;;;2.08;100.00
6034;BME280;3045;43.226;27.858;2022-12-29T04:48:04;63707.16;;;2.07;100.00
6034;BME280;3045;43.226;27.858;2022-12-29T04:50:30;62821.63;;;2.10;100.00
6034;BME280;3045;43.226;27.858;2022-12-29T04:52:57;61755.97;;;2.17;100.00
6034;BME280;3045;43.226;27.858;2022-12-29T04:55:24;60700.44;;;2.15;100.00
6034;BME280;3045;43.226;27.858;2022-12-29T04:57:52;62902.69;;;2.24;100.00
6034;BME280;3045;43.226;27.858;2022-12-29T05:00:20;69509.38;;;2.03;100.00
6034;BME280;3045;43.226;27.858;2022-12-29T05:02:47;70997.78;;;2.03;100.00
6034;BME280;3045;43.226;27.858;2022-12-29T05:05:14;66566.31;;;1.74;100.00
6034;BME280;3045;43.226;27.858;2022-12-29T05:07:41;58074.34;;;1.56;100.00
6034;BME280;3045;43.226;27.858;2022-12-29T05:10:08;52522.41;;;1.57;100.00
6034;BME280;3045;43.226;27.858;2022-12-29T05:12:37;48330.31;;;1.53;100.00
6034;BME280;3045;43.226;27.858;2022-12-29T05:15:07;45934.97;;;1.56;100.00
6034;BME280;3045;43.226;27.858;2022-12-29T05:17:34;43277.03;;;1.50;100.00
6034;BME280;3045;43.226;27.858;2022-12-29T05:20:01;42452.28;;;1.60;100.00
6034;BME280;3045;43.226;27.858;2022-12-29T05:22:28;41760.72;;;1.75;100.00
6034;BME280;3045;43.226;27.858;2022-12-29T05:24:55;41831.59;;;1.76;100.00
6034;BME280;3045;43.226;27.858;2022-12-29T05:27:21;44013.16;;;1.80;100.00
6034;BME280;3045;43.226;27.858;2022-12-29T05:29:48;42226.88;;;1.89;100.00
6034;BME280;3045;43.226;27.858;2022-12-29T05:32:16;40490.75;;;1.79;100.00
6034;BME280;3045;43.226;27.858;2022-12-29T05:34:43;40123.50;;;1.85;100.00
6034;BME280;3045;43.226;27.858;2022-12-29T05:37:10;41578.88;;;1.92;100.00
6034;BME280;3045;43.226;27.858;2022-12-29T05:39:38;41257.19;;;2.02;100.00
6034;BME280;3045;43.226;27.858;2022-12-29T05:42:05;34824.59;;;2.18;100.00
6034;BME280;3045;43.226;27.858;2022-12-29T05:44:32;36450.47;;;2.11;100.00
6034;BME280;3045;43.226;27.858;2022-12-29T05:46:59;40306.53;;;2.11;100.00
6034;BME280;3045;43.226;27.858;2022-12-29T05:49:27;36500.84;;;2.20;100.00
6034;BME280;3045;43.226;27.858;2022-12-29T05:51:54;32422.13;;;2.41;100.00
6034;BME280;3045;43.226;27.858;2022-12-29T05:54:21;25689.19;;;2.67;100.00
6034;BME280;3045;43.226;27.858;2022-12-29T05:56:48;24855.78;;;2.86;100.00
6034;BME280;3045;43.226;27.858;2022-12-29T05:59:14;25782.91;;;2.97;100.00
6034;BME280;3045;43.226;27.858;2022-12-29T06:01:41;29795.16;;;2.95;100.00
6034;BME280;3045;43.226;27.858;2022-12-29T06:04:08;30975.88;;;3.06;100.00
6034;BME280;3045;43.226;27.858;2022-12-29T06:06:36;30800.63;;;3.32;100.00
6034;BME280;3045;43.226;27.858;2022-12-29T06:09:04;31148.69;;;3.57;100.00
6034;BME280;3045;43.226;27.858;2022-12-29T06:11:31;33354.22;;;3.78;100.00
6034;BME280;3045;43.226;27.858;2022-12-29T06:13:58;48841.84;;;3.95;100.00
6034;BME280;3045;43.226;27.858;2022-12-29T06:16:24;55298.00;;;4.07;100.00
6034;BME280;3045;43.226;27.858;2022-12-29T06:18:51;62903.56;;;4.23;100.00
6034;BME280;3045;43.226;27.858;2022-12-29T06:21:19;65741.41;;;4.51;100.00
6034;BME280;3045;43.226;27.858;2022-12-29T06:23:47;66866.88;;;5.10;100.00
6034;BME280;3045;43.226;27.858;2022-12-29T06:26:14;80395.03;;;5.48;100.00
6034;BME280;3045;43.226;27.858;2022-12-29T06:28:40;111473.41;;;6.00;100.00
6034;BME280;3045;43.226;27.858;2022-12-29T06:31:09;131688.88;;;6.57;100.00
6034;BME280;3045;43.226;27.858;2022-12-29T06:33:36;147808.38;;;7.01;100.00
6034;BME280;3045;43.226;27.858;2022-12-29T06:36:03;147920.59;;;7.46;100.00
6034;BME280;3045;43.226;27.858;2022-12-29T06:38:30;147974.81;;;7.67;100.00
6034;BME280;3045;43.226;27.858;2022-12-29T06:40:58;148042.91;;;7.95;100.00
6034;BME280;3045;43.226;27.858;2022-12-29T06:43:25;148174.16;;;8.47;100.00
6034;BME280;3045;43.226;27.858;2022-12-29T06:45:52;148267.56;;;8.85;100.00
6034;BME280;3045;43.226;27.858;2022-12-29T06:48:18;148388.78;;;9.33;100.00
6034;BME280;3045;43.226;27.858;2022-12-29T06:50:45;148568.13;;;10.05;100.00
6034;BME280;3045;43.226;27.858;2022-12-29T06:53:12;148688.19;;;10.53;100.00
6034;BME280;3045;43.226;27.858;2022-12-29T06:55:39;148800.75;;;10.98;100.00
6034;BME280;3045;43.226;27.858;2022-12-29T06:58:07;148893.06;;;11.35;100.00
6034;BME280;3045;43.226;27.858;2022-12-29T07:00:34;148998.09;;;11.77;100.00
6034;BME280;3045;43.226;27.858;2022-12-29T07:03:01;149157.56;;;12.41;100.00
6034;BME280;3045;43.226;27.858;2022-12-29T07:05:28;149271.50;;;12.86;100.00
6034;BME280;3045;43.226;27.858;2022-12-29T07:07:57;149375.44;;;13.27;100.00
6034;BME280;3045;43.226;27.858;2022-12-29T07:10:25;149587.03;;;14.12;100.00
6034;BME280;3045;43.226;27.858;2022-12-29T07:12:52;149803.88;;;14.98;100.00
6034;BME280;3045;43.226;27.858;2022-12-29T07:15:22;150052.66;;;15.97;100.00
6034;BME280;3045;43.226;27.858;2022-12-29T07:17:49;150067.91;;;16.04;94.85
6034;BME280;3045;43.226;27.858;2022-12-29T07:20:16;150263.47;;;16.81;93.91
6034;BME280;3045;43.226;27.858;2022-12-29T07:22:43;150443.88;;;17.53;88.12
6034;BME280;3045;43.226;27.858;2022-12-29T07:25:09;150591.41;;;18.12;86.01
6034;BME280;3045;43.226;27.858;2022-12-29T07:27:36;150769.47;;;18.83;80.45
6034;BME280;3045;43.226;27.858;2022-12-29T07:30:04;150742.72;;;18.72;75.75
6034;BME280;3045;43.226;27.858;2022-12-29T07:32:33;150723.66;;;18.64;74.98
6034;BME280;3045;43.226;27.858;2022-12-29T07:35:00;150733.84;;;18.68;77.83
6034;BME280;3045;43.226;27.858;2022-12-29T07:37:27;150723.66;;;18.64;75.44
6034;BME280;3045;43.226;27.858;2022-12-29T07:39:54;150819.06;;;19.02;73.15
6034;BME280;3045;43.226;27.858;2022-12-29T07:42:21;150812.72;;;19.00;74.40
6034;BME280;3045;43.226;27.858;2022-12-29T07:44:48;150993.47;;;19.72;70.28
6034;BME280;3045;43.226;27.858;2022-12-29T07:47:15;151044.38;;;19.92;66.19
6034;BME280;3045;43.226;27.858;2022-12-29T07:49:43;151223.94;;;20.63;63.43
6034;BME280;3045;43.226;27.858;2022-12-29T07:52:10;151316.97;;;21.00;61.02
6034;BME280;3045;43.226;27.858;2022-12-29T07:54:37;151375.59;;;21.23;58.63
6034;BME280;3045;43.226;27.858;2022-12-29T07:57:04;151341.13;;;21.10;56.31
6034;BME280;3045;43.226;27.858;2022-12-29T07:59:31;151252.00;;;20.74;56.58
6034;BME280;3045;43.226;27.858;2022-12-29T08:01:58;151519.63;;;21.80;54.90
6034;BME280;3045;43.226;27.858;2022-12-29T08:04:25;151536.19;;;21.87;52.07
6034;BME280;3045;43.226;27.858;2022-12-29T08:06:53;151578.28;;;22.04;52.85
6034;BME280;3045;43.226;27.858;2022-12-29T08:09:20;151513.22;;;21.78;52.37
6034;BME280;3045;43.226;27.858;2022-12-29T08:11:47;151446.94;;;21.52;54.06
6034;BME280;3045;43.226;27.858;2022-12-29T08:14:14;151215.03;;;20.60;57.27
6034;BME280;3045;43.226;27.858;2022-12-29T08:16:41;151231.63;;;20.66;57.71
6034;BME280;3045;43.226;27.858;2022-12-29T08:19:10;151434.25;;;21.47;57.00
6034;BME280;3045;43.226;27.858;2022-12-29T08:21:37;151620.38;;;22.20;53.62
6034;BME280;3045;43.226;27.858;2022-12-29T08:24:05;151644.59;;;22.30;53.30
6034;BME280;3045;43.226;27.858;2022-12-29T08:26:33;151373.03;;;21.22;56.69
6034;BME280;3045;43.226;27.858;2022-12-29T08:29:00;151404.91;;;21.35;57.60
6034;BME280;3045;43.226;27.858;2022-12-29T08:31:27;151543.81;;;21.90;53.74
6034;BME280;3045;43.226;27.858;2022-12-29T08:33:54;151421.50;;;21.41;54.32
6034;BME280;3045;43.226;27.858;2022-12-29T08:36:20;151446.94;;;21.52;55.40
6034;BME280;3045;43.226;27.858;2022-12-29T08:38:48;151406.16;;;21.35;56.00
6034;BME280;3045;43.226;27.858;2022-12-29T08:41:16;151495.41;;;21.71;54.54
6034;BME280;3045;43.226;27.858;2022-12-29T08:43:45;151184.47;;;20.47;58.83
6034;BME280;3045;43.226;27.858;2022-12-29T08:46:13;151520.91;;;21.81;55.59
6034;BME280;3045;43.226;27.858;2022-12-29T08:48:42;151483.94;;;21.66;55.05
6034;BME280;3045;43.226;27.858;2022-12-29T08:51:09;151593.63;;;22.10;53.41
6034;BME280;3045;43.226;27.858;2022-12-29T08:53:36;151631.84;;;22.25;52.78
6034;BME280;3045;43.226;27.858;2022-12-29T08:56:03;151799.00;;;22.91;50.30
6034;BME280;3045;43.226;27.858;2022-12-29T08:58:32;151913.81;;;23.37;50.01
6034;BME280;3045;43.226;27.858;2022-12-29T09:00:59;152023.63;;;23.80;47.94
6034;BME280;3045;43.226;27.858;2022-12-29T09:03:26;151867.84;;;23.18;49.40
6034;BME280;3045;43.226;27.858;2022-12-29T09:05:54;151947.03;;;23.50;48.44
6034;BME280;3045;43.226;27.858;2022-12-29T09:08:22;152273.91;;;24.79;45.65
6034;BME280;3045;43.226;27.858;2022-12-29T09:10:49;152239.41;;;24.66;45.19
6034;BME280;3045;43.226;27.858;2022-12-29T09:13:18;152003.16;;;23.72;47.72
6034;BME280;3045;43.226;27.858;2022-12-29T09:15:47;151793.88;;;22.89;49.46
6034;BME280;3045;43.226;27.858;2022-12-29T09:18:13;151879.34;;;23.23;48.69
6034;BME280;3045;43.226;27.858;2022-12-29T09:20:40;152391.47;;;25.26;45.06
6034;BME280;3045;43.226;27.858;2022-12-29T09:23:07;152365.94;;;25.16;44.28
6034;BME280;3045;43.226;27.858;2022-12-29T09:25:34;152427.25;;;25.40;43.84
6034;BME280;3045;43.226;27.858;2022-12-29T09:28:01;152489.91;;;25.65;42.58
6034;BME280;3045;43.226;27.858;2022-12-29T09:30:33;152629.28;;;26.20;41.64
6034;BME280;3045;43.226;27.858;2022-12-29T09:33:01;152394.03;;;25.27;42.78
6034;BME280;3045;43.226;27.858;2022-12-29T09:35:28;152179.41;;;24.42;44.66
6034;BME280;3045;43.226;27.858;2022-12-29T09:37:54;152226.66;;;24.61;43.79
6034;BME280;3045;43.226;27.858;2022-12-29T09:40:27;152118.13;;;24.18;45.34
6034;BME280;3045;43.226;27.858;2022-12-29T09:43:14;152284.13;;;24.83;44.31
6034;BME280;3045;43.226;27.858;2022-12-29T09:45:46;152194.75;;;24.48;44.82
6034;BME280;3045;43.226;27.858;2022-12-29T09:48:18;152068.25;;;23.98;46.70
6034;BME280;3045;43.226;27.858;2022-12-29T09:50:50;152391.47;;;25.26;43.72
6034;BME280;3045;43.226;27.858;2022-12-29T09:53:21;152187.06;;;24.45;44.96
6034;BME280;3045;43.226;27.858;2022-12-29T09:55:54;151977.66;;;23.62;46.73
6034;BME280;3045;43.226;27.858;2022-12-29T09:58:26;151917.59;;;23.38;47.68
6034;BME280;3045;43.226;27.858;2022-12-29T10:01:01;152220.25;;;24.58;45.19
6034;BME280;3045;43.226;27.858;2022-12-29T10:03:42;151995.50;;;23.69;46.61
6034;BME280;3045;43.226;27.858;2022-12-29T10:06:14;152130.91;;;24.23;45.31
6034;BME280;3045;43.226;27.858;2022-12-29T10:08:48;152109.16;;;24.14;45.83
6034;BME280;3045;43.226;27.858;2022-12-29T10:11:28;152455.34;;;25.51;42.94
6034;BME280;3045;43.226;27.858;2022-12-29T10:14:15;152230.47;;;24.62;44.60
6034;BME280;3045;43.226;27.858;2022-12-29T10:16:53;152125.78;;;24.21;45.60
6034;BME280;3045;43.226;27.858;2022-12-29T10:19:52;152173.03;;;24.39;44.68
6034;BME280;3045;43.226;27.858;2022-12-29T10:22:32;152079.75;;;24.02;46.62
6034;BME280;3045;43.226;27.858;2022-12-29T10:25:04;151908.69;;;23.35;47.73
6034;BME280;3045;43.226;27.858;2022-12-29T10:27:35;152008.28;;;23.74;47.29
6034;BME280;3045;43.226;27.858;2022-12-29T10:30:03;152119.41;;;24.18;46.59
6034;BME280;3045;43.226;27.858;2022-12-29T10:32:33;152235.59;;;24.64;44.37
6034;BME280;3045;43.226;27.858;2022-12-29T10:35:05;152139.84;;;24.26;45.20
6034;BME280;3045;43.226;27.858;2022-12-29T10:37:42;152535.94;;;25.83;42.63
6034;BME280;3045;43.226;27.858;2022-12-29T10:40:18;152575.56;;;25.99;42.06
6034;BME280;3045;43.226;27.858;2022-12-29T10:42:50;152769.94;;;26.75;40.39
6034;BME280;3045;43.226;27.858;2022-12-29T10:45:19;152743.13;;;26.65;39.93
6034;BME280;3045;43.226;27.858;2022-12-29T10:47:53;152574.28;;;25.98;40.78
6034;BME280;3045;43.226;27.858;2022-12-29T10:50:22;152468.19;;;25.56;42.12
6034;BME280;3045;43.226;27.858;2022-12-29T10:52:51;152534.66;;;25.82;41.57
6034;BME280;3045;43.226;27.858;2022-12-29T10:55:21;152677.91;;;26.39;40.27
6034;BME280;3045;43.226;27.858;2022-12-29T10:57:49;152990.09;;;27.62;38.84
6034;BME280;3045;43.226;27.858;2022-12-29T11:00:18;152810.91;;;26.92;38.92
6034;BME280;3045;43.226;27.858;2022-12-29T11:05:54;152863.34;;;27.12;38.65
6034;BME280;3045;43.226;27.858;2022-12-29T11:08:25;152941.41;;;27.43;37.99
6034;BME280;3045;43.226;27.858;2022-12-29T11:10:59;152938.84;;;27.42;38.10
6034;BME280;3045;43.226;27.858;2022-12-29T11:13:28;153128.34;;;28.17;37.33
6034;BME280;3045;43.226;27.858;2022-12-29T11:15:55;153215.41;;;28.51;37.04
6034;BME280;3045;43.226;27.858;2022-12-29T11:18:24;153095.03;;;28.04;37.04
6034;BME280;3045;43.226;27.858;2022-12-29T11:20:54;153118.13;;;28.13;37.18
6034;BME280;3045;43.226;27.858;2022-12-29T11:23:25;153174.41;;;28.35;36.55
6034;BME280;3045;43.226;27.858;2022-12-29T11:26:14;152968.34;;;27.54;37.46
6034;BME280;3045;43.226;27.858;2022-12-29T11:28:43;153043.84;;;27.84;36.89
6034;BME280;3045;43.226;27.858;2022-12-29T11:31:12;152891.53;;;27.23;37.69
6034;BME280;3045;43.226;27.858;2022-12-29T11:33:41;152662.53;;;26.33;39.07
6034;BME280;3045;43.226;27.858;2022-12-29T11:36:15;152553.81;;;25.90;40.06
6034;BME280;3045;43.226;27.858;2022-12-29T11:38:50;152055.53;;;23.93;43.17
6034;BME280;3045;43.226;27.858;2022-12-29T11:41:25;151707.09;;;22.55;46.60
6034;BME280;3045;43.226;27.858;2022-12-29T11:43:55;151426.56;;;21.43;50.56
6034;BME280;3045;43.226;27.858;2022-12-29T11:46:26;151146.31;;;20.32;55.93
6034;BME280;3045;43.226;27.858;2022-12-29T11:48:54;150899.25;;;19.34;62.04
6034;BME280;3045;43.226;27.858;2022-12-29T11:51:27;150680.38;;;18.47;72.70
6034;BME280;3045;43.226;27.858;2022-12-29T11:53:57;150468.06;;;17.63;81.69
6034;BME280;3045;43.226;27.858;2022-12-29T11:56:34;150344.78;;;17.14;84.09
6034;BME280;3045;43.226;27.858;2022-12-29T11:59:33;150230.44;;;16.68;93.37
6034;BME280;3045;43.226;27.858;2022-12-29T12:02:20;150051.38;;;15.97;99.24
6034;BME280;3045;43.226;27.858;2022-12-29T12:04:51;150033.63;;;15.90;100.00
6034;BME280;3045;43.226;27.858;2022-12-29T12:07:26;149981.59;;;15.69;100.00
6034;BME280;3045;43.226;27.858;2022-12-29T12:09:58;149951.13;;;15.57;100.00
6034;BME280;3045;43.226;27.858;2022-12-29T12:12:31;149854.66;;;15.19;100.00
6034;BME280;3045;43.226;27.858;2022-12-29T12:15:02;149829.28;;;15.08;100.00
6034;BME280;3045;43.226;27.858;2022-12-29T12:17:33;149815.31;;;15.03;100.00
6034;BME280;3045;43.226;27.858;2022-12-29T12:20:15;149797.56;;;14.96;100.00
6034;BME280;3045;43.226;27.858;2022-12-29T12:22:52;149725.28;;;14.67;100.00
6034;BME280;3045;43.226;27.858;2022-12-29T12:25:23;149666.94;;;14.44;100.00
6034;BME280;3045;43.226;27.858;2022-12-29T12:27:57;149578.19;;;14.08;100.00
6034;BME280;3045;43.226;27.858;2022-12-29T12:30:28;149384.28;;;13.31;100.00
6034;BME280;3045;43.226;27.858;2022-12-29T12:33:00;149358.94;;;13.21;100.00
6034;BME280;3045;43.226;27.858;2022-12-29T12:35:36;149365.28;;;13.23;100.00
6034;BME280;3045;43.226;27.858;2022-12-29T12:38:24;149341.22;;;13.14;100.00
6034;BME280;3045;43.226;27.858;2022-12-29T12:41:08;149228.44;;;12.69;100.00
6034;BME280;3045;43.226;27.858;2022-12-29T12:43:43;149129.72;;;12.29;100.00
6034;BME280;3045;43.226;27.858;2022-12-29T12:46:23;149082.88;;;12.11;100.00
6034;BME280;3045;43.226;27.858;2022-12-29T12:49:16;149131.00;;;12.30;100.00
6034;BME280;3045;43.226;27.858;2022-12-29T12:51:54;149134.75;;;12.31;100.00
6034;BME280;3045;43.226;27.858;2022-12-29T12:54:40;149101.84;;;12.18;100.00
6034;BME280;3045;43.226;27.858;2022-12-29T12:57:17;149087.97;;;12.13;100.00
6034;BME280;3045;43.226;27.858;2022-12-29T12:59:54;149105.66;;;12.20;100.00
6034;BME280;3045;43.226;27.858;2022-12-29T13:02:34;149089.22;;;12.13;100.00
6034;BME280;3045;43.226;27.858;2022-12-29T13:05:24;149063.91;;;12.03;100.00
6034;BME280;3045;43.226;27.858;2022-12-29T13:08:03;149058.81;;;12.01;100.00
6034;BME280;3045;43.226;27.858;2022-12-29T13:10:45;149094.25;;;12.15;100.00
6034;BME280;3045;43.226;27.858;2022-12-29T13:13:45;149089.22;;;12.13;100.00
6034;BME280;3045;43.226;27.858;2022-12-29T13:16:22;149093.00;;;12.15;100.00
6034;BME280;3045;43.226;27.858;2022-12-29T13:18:59;149103.13;;;12.19;100.00
6034;BME280;3045;43.226;27.858;2022-12-29T13:21:42;149089.22;;;12.13;100.00
6034;BME280;3045;43.226;27.858;2022-12-29T13:24:17;149038.56;;;11.93;100.00
6034;BME280;3045;43.226;27.858;2022-12-29T13:26:54;149003.19;;;11.79;100.00
6034;BME280;3045;43.226;27.858;2022-12-29T13:29:32;148961.38;;;11.62;100.00
6034;BME280;3045;43.226;27.858;2022-12-29T13:32:13;148970.22;;;11.66;100.00